Time,TemperatureF,DewpointF,PressureIn,WindDirection,WindDirectionDegrees,WindSpeedMPH,WindSpeedGustMPH,Humidity,HourlyPrecipIn,Conditions,Clouds,dailyrainin,SoftwareType,DateUTC
2013-06-06 00:05:00,74.7,71.9,29.97,SE,125,5.0,5.0,91,0.00,,,0.00,Wunderground v.1.15,2013-06-06 04:05:00,
2013-06-06 00:10:00,74.7,71.9,29.97,SE,127,5.0,7.0,91,0.00,,,0.00,Wunderground v.1.15,2013-06-06 04:10:00,
2013-06-06 00:15:00,74.7,71.9,29.97,SE,136,4.0,7.0,91,0.00,,,0.00,Wunderground v.1.15,2013-06-06 04:15:00,
2013-06-06 00:25:00,74.8,72.0,29.96,SE,126,5.0,7.0,91,0.00,,,0.00,Wunderground v.1.15,2013-06-06 04:25:00,
2013-06-06 00:35:00,74.8,71.7,29.96,ESE,122,4.0,4.0,90,0.00,,,0.00,Wunderground v.1.15,2013-06-06 04:35:00,
2013-06-06 00:45:00,74.9,71.8,29.96,SE,135,4.0,6.0,90,0.00,,,0.00,Wunderground v.1.15,2013-06-06 04:45:00,
2013-06-06 00:55:00,74.8,71.3,29.95,ESE,117,6.0,8.0,89,0.00,,,0.00,Wunderground v.1.15,2013-06-06 04:55:00,
2013-06-06 01:04:00,74.7,71.2,29.95,SE,134,3.0,6.0,89,0.00,,,0.00,Wunderground v.1.15,2013-06-06 05:04:00,
2013-06-06 01:10:00,74.7,70.9,29.95,SE,130,3.0,3.0,88,0.00,,,0.00,Wunderground v.1.15,2013-06-06 05:10:00,
2013-06-06 01:20:00,74.6,71.1,29.96,SE,134,2.0,2.0,89,0.00,,,0.00,Wunderground v.1.15,2013-06-06 05:20:00,
2013-06-06 01:30:00,74.5,71.0,29.95,ESE,121,3.0,3.0,89,0.00,,,0.00,Wunderground v.1.15,2013-06-06 05:30:00,
2013-06-06 01:40:00,74.5,71.0,29.95,East,92,3.0,3.0,89,0.00,,,0.00,Wunderground v.1.15,2013-06-06 05:40:00,
2013-06-06 01:50:00,74.6,71.1,29.94,SE,125,3.0,3.0,89,0.00,,,0.00,Wunderground v.1.15,2013-06-06 05:50:00,
2013-06-06 02:00:00,74.6,71.5,29.94,ESE,109,3.0,3.0,90,0.00,,,0.00,Wunderground v.1.15,2013-06-06 06:00:00,
2013-06-06 02:10:00,74.4,71.6,29.94,ESE,115,2.0,5.0,91,0.00,,,0.00,Wunderground v.1.15,2013-06-06 06:10:00,
2013-06-06 02:20:00,74.3,71.8,29.93,ESE,119,3.0,3.0,92,0.00,,,0.00,Wunderground v.1.15,2013-06-06 06:20:00,
2013-06-06 02:30:00,74.3,71.8,29.93,ESE,113,3.0,3.0,92,0.00,,,0.00,Wunderground v.1.15,2013-06-06 06:30:00,
2013-06-06 02:40:00,74.3,71.8,29.93,ESE,121,4.0,11.0,92,0.00,,,0.00,Wunderground v.1.15,2013-06-06 06:40:00,
2013-06-06 02:50:00,74.1,71.6,29.93,SE,145,4.0,4.0,92,0.00,,,0.00,Wunderground v.1.15,2013-06-06 06:50:00,
2013-06-06 03:00:00,73.9,71.4,29.92,SE,130,4.0,4.0,92,0.00,,,0.00,Wunderground v.1.15,2013-06-06 07:00:00,
2013-06-06 03:09:00,73.8,71.6,29.92,SE,126,3.0,3.0,93,0.00,,,0.00,Wunderground v.1.15,2013-06-06 07:09:00,
2013-06-06 03:15:00,73.8,71.6,29.92,ESE,119,3.0,3.0,93,0.00,,,0.00,Wunderground v.1.15,2013-06-06 07:15:00,
2013-06-06 03:25:00,73.9,71.7,29.92,ESE,123,3.0,5.0,93,0.00,,,0.00,Wunderground v.1.15,2013-06-06 07:25:00,
2013-06-06 03:35:00,73.8,71.6,29.91,ESE,114,4.0,8.0,93,0.00,,,0.00,Wunderground v.1.15,2013-06-06 07:35:00,
2013-06-06 03:45:00,73.7,71.5,29.91,ESE,105,3.0,4.0,93,0.00,,,0.00,Wunderground v.1.15,2013-06-06 07:45:00,
2013-06-06 03:55:00,73.8,71.6,29.90,SE,131,4.0,4.0,93,0.00,,,0.00,Wunderground v.1.15,2013-06-06 07:55:00,
2013-06-06 04:04:00,73.9,71.7,29.90,East,89,4.0,4.0,93,0.00,,,0.00,Wunderground v.1.15,2013-06-06 08:04:00,
2013-06-06 04:10:00,73.8,71.6,29.90,East,96,4.0,9.0,93,0.00,,,0.00,Wunderground v.1.15,2013-06-06 08:10:00,
2013-06-06 04:20:00,73.8,71.6,29.89,ESE,120,4.0,4.0,93,0.00,,,0.00,Wunderground v.1.15,2013-06-06 08:20:00,
2013-06-06 04:30:00,73.6,71.4,29.89,SE,138,6.0,9.0,93,0.00,,,0.00,Wunderground v.1.15,2013-06-06 08:30:00,
2013-06-06 04:40:00,73.2,71.1,29.89,SE,129,6.0,6.0,93,0.00,,,0.00,Wunderground v.1.15,2013-06-06 08:40:00,
2013-06-06 04:50:00,72.8,70.7,29.88,SE,133,5.0,5.0,93,0.00,,,0.00,Wunderground v.1.15,2013-06-06 08:50:00,
2013-06-06 05:00:00,73.0,71.2,29.88,ESE,116,3.0,3.0,94,0.00,,,0.00,Wunderground v.1.15,2013-06-06 09:00:00,
2013-06-06 05:10:00,73.2,71.4,29.88,SE,138,3.0,4.0,94,0.00,,,0.00,Wunderground v.1.15,2013-06-06 09:10:00,
2013-06-06 05:19:00,73.4,71.6,29.88,SE,140,5.0,5.0,94,0.00,,,0.00,Wunderground v.1.15,2013-06-06 09:19:00,
2013-06-06 05:25:00,73.5,71.7,29.88,ESE,123,5.0,8.0,94,0.00,,,0.00,Wunderground v.1.15,2013-06-06 09:25:00,
2013-06-06 05:30:00,73.5,71.7,29.88,SE,134,5.0,5.0,94,0.00,,,0.00,Wunderground v.1.15,2013-06-06 09:30:00,
2013-06-06 05:40:00,73.6,71.8,29.88,SE,135,4.0,6.0,94,0.00,,,0.00,Wunderground v.1.15,2013-06-06 09:40:00,
2013-06-06 05:49:00,73.7,71.9,29.89,SE,146,4.0,4.0,94,0.00,,,0.00,Wunderground v.1.15,2013-06-06 09:49:00,
2013-06-06 05:55:00,73.8,72.0,29.89,East,95,5.0,5.0,94,0.00,,,0.00,Wunderground v.1.15,2013-06-06 09:55:00,
2013-06-06 06:05:00,73.6,71.4,29.89,ESE,116,4.0,5.0,93,0.00,,,0.00,Wunderground v.1.15,2013-06-06 10:05:00,
2013-06-06 06:15:00,73.5,71.0,29.89,SE,128,5.0,6.0,92,0.00,,,0.00,Wunderground v.1.15,2013-06-06 10:15:00,
2013-06-06 06:25:00,73.5,71.0,29.89,ESE,123,3.0,4.0,92,0.00,,,0.00,Wunderground v.1.15,2013-06-06 10:25:00,
2013-06-06 06:35:00,73.5,71.4,29.89,ESE,121,2.0,4.0,93,0.00,,,0.00,Wunderground v.1.15,2013-06-06 10:35:00,
2013-06-06 06:45:00,73.5,71.4,29.89,SE,141,2.0,2.0,93,0.00,,,0.00,Wunderground v.1.15,2013-06-06 10:45:00,
2013-06-06 06:55:00,73.6,71.4,29.88,East,92,2.0,2.0,93,0.00,,,0.00,Wunderground v.1.15,2013-06-06 10:55:00,
2013-06-06 07:05:00,73.9,71.7,29.88,ESE,118,2.0,2.0,93,0.00,,,0.00,Wunderground v.1.15,2013-06-06 11:05:00,
2013-06-06 07:10:00,74.0,71.8,29.88,ESE,113,1.0,1.0,93,0.00,,,0.00,Wunderground v.1.15,2013-06-06 11:10:00,
2013-06-06 07:15:00,74.2,72.4,29.88,ESE,117,1.0,3.0,94,0.00,,,0.00,Wunderground v.1.15,2013-06-06 11:15:00,
2013-06-06 07:25:00,74.5,72.3,29.87,East,94,2.0,5.0,93,0.00,,,0.00,Wunderground v.1.15,2013-06-06 11:25:00,
2013-06-06 07:35:00,75.0,72.8,29.87,ESE,113,2.0,3.0,93,0.00,,,0.00,Wunderground v.1.15,2013-06-06 11:35:00,
2013-06-06 07:45:00,75.4,72.9,29.87,ESE,103,4.0,4.0,92,0.00,,,0.00,Wunderground v.1.15,2013-06-06 11:45:00,
2013-06-06 07:55:00,75.6,73.1,29.87,SE,135,4.0,8.0,92,0.00,,,0.00,Wunderground v.1.15,2013-06-06 11:55:00,
2013-06-06 08:04:00,75.6,73.1,29.87,SE,143,6.0,8.0,92,0.00,,,0.00,Wunderground v.1.15,2013-06-06 12:04:00,
2013-06-06 08:10:00,75.4,72.9,29.87,ESE,109,5.0,5.0,92,0.00,,,0.00,Wunderground v.1.15,2013-06-06 12:10:00,
2013-06-06 08:20:00,75.1,72.9,29.88,SSE,154,6.0,8.0,93,0.00,,,0.00,Wunderground v.1.15,2013-06-06 12:20:00,
2013-06-06 08:30:00,75.0,72.8,29.87,SSE,147,8.0,8.0,93,0.00,,,0.00,Wunderground v.1.15,2013-06-06 12:30:00,
2013-06-06 08:40:00,75.0,72.8,29.88,SE,136,6.0,6.0,93,0.00,,,0.00,Wunderground v.1.15,2013-06-06 12:40:00,
2013-06-06 08:50:00,75.0,72.8,29.88,SE,136,6.0,11.0,93,0.00,,,0.00,Wunderground v.1.15,2013-06-06 12:50:00,
2013-06-06 09:00:00,74.6,72.4,29.89,SSE,165,8.0,8.0,93,0.00,,,0.00,Wunderground v.1.15,2013-06-06 13:00:00,
2013-06-06 09:10:00,73.7,71.5,29.89,SSW,195,11.0,11.0,93,0.00,,,0.00,Wunderground v.1.15,2013-06-06 13:10:00,
2013-06-06 09:20:00,73.4,71.6,29.89,SSE,156,8.0,8.0,94,0.00,,,0.00,Wunderground v.1.15,2013-06-06 13:20:00,
2013-06-06 09:30:00,73.5,71.7,29.89,South,175,7.0,7.0,94,0.00,,,0.00,Wunderground v.1.15,2013-06-06 13:30:00,
2013-06-06 09:40:00,73.4,71.6,29.90,SE,145,8.0,8.0,94,0.00,,,0.00,Wunderground v.1.15,2013-06-06 13:40:00,
2013-06-06 09:50:00,73.8,72.0,29.90,SE,140,6.0,8.0,94,0.00,,,0.00,Wunderground v.1.15,2013-06-06 13:50:00,
2013-06-06 10:00:00,74.3,72.1,29.89,SE,137,5.0,5.0,93,0.00,,,0.00,Wunderground v.1.15,2013-06-06 14:00:00,
2013-06-06 10:10:00,75.1,72.6,29.89,SE,134,5.0,5.0,92,0.00,,,0.00,Wunderground v.1.15,2013-06-06 14:10:00,
2013-06-06 10:19:00,75.2,72.7,29.89,SSE,150,5.0,5.0,92,0.00,,,0.00,Wunderground v.1.15,2013-06-06 14:19:00,
2013-06-06 10:25:00,75.6,72.8,29.88,SSE,166,5.0,5.0,91,0.00,,,0.00,Wunderground v.1.15,2013-06-06 14:25:00,
2013-06-06 10:35:00,76.5,73.7,29.89,SSE,157,5.0,8.0,91,0.00,,,0.00,Wunderground v.1.15,2013-06-06 14:35:00,
2013-06-06 10:45:00,77.4,73.9,29.89,SSE,150,4.0,7.0,89,0.00,,,0.00,Wunderground v.1.15,2013-06-06 14:45:00,
2013-06-06 10:55:00,77.6,74.1,29.89,SSE,165,5.0,5.0,89,0.00,,,0.00,Wunderground v.1.15,2013-06-06 14:55:00,
2013-06-06 11:05:00,78.1,73.6,29.89,SSW,198,4.0,8.0,86,0.00,,,0.00,Wunderground v.1.15,2013-06-06 15:05:00,
2013-06-06 11:15:00,78.7,73.5,29.89,SW,221,7.0,8.0,84,0.00,,,0.00,Wunderground v.1.15,2013-06-06 15:15:00,
2013-06-06 11:25:00,78.9,73.3,29.89,SSW,193,7.0,8.0,83,0.00,,,0.00,Wunderground v.1.15,2013-06-06 15:25:00,
2013-06-06 11:34:00,79.2,73.2,29.89,SSW,198,7.0,7.0,82,0.00,,,0.00,Wunderground v.1.15,2013-06-06 15:34:00,
2013-06-06 11:40:00,79.2,72.9,29.89,SSW,198,6.0,7.0,81,0.00,,,0.00,Wunderground v.1.15,2013-06-06 15:40:00,
2013-06-06 11:45:00,79.3,72.6,29.89,SSW,196,6.0,8.0,80,0.00,,,0.00,Wunderground v.1.15,2013-06-06 15:45:00,
2013-06-06 11:55:00,79.2,72.9,29.89,SSW,202,6.0,9.0,81,0.00,,,0.00,Wunderground v.1.15,2013-06-06 15:55:00,
2013-06-06 12:04:00,79.1,72.8,29.89,SSW,201,6.0,6.0,81,0.00,,,0.00,Wunderground v.1.15,2013-06-06 16:04:00,
2013-06-06 12:10:00,79.2,72.9,29.89,SSW,201,6.0,7.0,81,0.00,,,0.00,Wunderground v.1.15,2013-06-06 16:10:00,
2013-06-06 12:20:00,79.6,73.6,29.88,SSW,196,5.0,7.0,82,0.00,,,0.00,Wunderground v.1.15,2013-06-06 16:20:00,
2013-06-06 12:30:00,79.9,73.9,29.88,South,172,6.0,6.0,82,0.00,,,0.00,Wunderground v.1.15,2013-06-06 16:30:00,
2013-06-06 12:39:00,79.8,73.1,29.88,SSE,155,6.0,6.0,80,0.00,,,0.00,Wunderground v.1.15,2013-06-06 16:39:00,
2013-06-06 12:45:00,79.7,73.7,29.88,SSW,202,6.0,6.0,82,0.00,,,0.00,Wunderground v.1.15,2013-06-06 16:45:00,
2013-06-06 12:55:00,76.8,72.3,29.88,South,175,7.0,7.0,86,0.00,,,0.00,Wunderground v.1.15,2013-06-06 16:55:00,
2013-06-06 13:05:00,75.9,72.4,29.88,South,187,5.0,6.0,89,0.00,,,0.00,Wunderground v.1.15,2013-06-06 17:05:00,
2013-06-06 13:15:00,75.8,72.3,29.87,South,186,6.0,6.0,89,0.00,,,0.00,Wunderground v.1.15,2013-06-06 17:15:00,
2013-06-06 13:24:00,75.8,72.0,29.87,SW,217,5.0,5.0,88,0.00,,,0.00,Wunderground v.1.15,2013-06-06 17:24:00,
2013-06-06 13:30:00,76.3,72.5,29.87,SSW,203,6.0,6.0,88,0.00,,,0.00,Wunderground v.1.15,2013-06-06 17:30:00,
2013-06-06 13:40:00,77.4,73.2,29.87,SSW,198,5.0,5.0,87,0.00,,,0.00,Wunderground v.1.15,2013-06-06 17:40:00,
2013-06-06 13:45:00,78.0,73.8,29.87,SSE,165,4.0,5.0,87,0.00,,,0.00,Wunderground v.1.15,2013-06-06 17:45:00,
2013-06-06 13:50:00,78.2,74.0,29.87,South,175,5.0,5.0,87,0.00,,,0.00,Wunderground v.1.15,2013-06-06 17:50:00,
2013-06-06 13:59:00,78.4,73.9,29.86,SSW,201,6.0,6.0,86,0.00,,,0.00,Wunderground v.1.15,2013-06-06 17:59:00,
2013-06-06 14:05:00,78.6,73.7,29.86,SE,137,7.0,7.0,85,0.00,,,0.00,Wunderground v.1.15,2013-06-06 18:05:00,
2013-06-06 14:15:00,75.7,71.9,29.86,South,180,8.0,12.0,88,0.00,,,0.00,Wunderground v.1.15,2013-06-06 18:15:00,
2013-06-06 14:25:00,74.4,71.6,29.86,South,174,6.0,8.0,91,0.00,,,0.00,Wunderground v.1.15,2013-06-06 18:25:00,
2013-06-06 14:35:00,75.0,72.2,29.85,South,191,4.0,5.0,91,0.00,,,0.00,Wunderground v.1.15,2013-06-06 18:35:00,
2013-06-06 14:45:00,75.5,71.7,29.85,SSW,193,3.0,7.0,88,0.00,,,0.00,Wunderground v.1.15,2013-06-06 18:45:00,
2013-06-06 14:55:00,76.6,72.8,29.85,SSW,202,4.0,6.0,88,0.00,,,0.00,Wunderground v.1.15,2013-06-06 18:55:00,
2013-06-06 15:04:00,77.2,73.0,29.85,SSW,207,5.0,7.0,87,0.00,,,0.00,Wunderground v.1.15,2013-06-06 19:04:00,
2013-06-06 15:10:00,77.5,73.3,29.85,SSW,198,5.0,7.0,87,0.00,,,0.00,Wunderground v.1.15,2013-06-06 19:10:00,
2013-06-06 15:20:00,78.2,73.7,29.85,SE,146,6.0,6.0,86,0.00,,,0.00,Wunderground v.1.15,2013-06-06 19:20:00,
2013-06-06 15:30:00,78.5,73.6,29.85,SSW,202,5.0,6.0,85,0.00,,,0.00,Wunderground v.1.15,2013-06-06 19:30:00,
2013-06-06 15:40:00,78.3,73.8,29.84,SSW,194,7.0,8.0,86,0.00,,,0.00,Wunderground v.1.15,2013-06-06 19:40:00,
2013-06-06 15:50:00,78.2,73.3,29.84,SSW,195,7.0,10.0,85,0.00,,,0.00,Wunderground v.1.15,2013-06-06 19:50:00,
2013-06-06 16:00:00,77.9,73.0,29.84,South,190,5.0,14.0,85,0.00,,,0.00,Wunderground v.1.15,2013-06-06 20:00:00,
2013-06-06 16:05:00,77.7,72.8,29.84,SSW,207,7.0,14.0,85,0.00,,,0.00,Wunderground v.1.15,2013-06-06 20:05:00,
2013-06-06 16:10:00,77.8,72.9,29.84,South,189,8.0,8.0,85,0.00,,,0.00,Wunderground v.1.15,2013-06-06 20:10:00,
2013-06-06 16:20:00,77.9,72.3,29.83,SSE,151,6.0,7.0,83,0.00,,,0.00,Wunderground v.1.15,2013-06-06 20:20:00,
2013-06-06 16:25:00,77.8,72.6,29.83,SSW,192,8.0,8.0,84,0.00,,,0.00,Wunderground v.1.15,2013-06-06 20:25:00,
2013-06-06 16:35:00,77.6,72.4,29.83,SSW,212,6.0,9.0,84,0.00,,,0.00,Wunderground v.1.15,2013-06-06 20:35:00,
2013-06-06 16:45:00,77.5,72.3,29.82,SSW,213,8.0,9.0,84,0.00,,,0.00,Wunderground v.1.15,2013-06-06 20:45:00,
2013-06-06 16:55:00,77.6,72.7,29.82,SW,217,7.0,7.0,85,0.00,,,0.00,Wunderground v.1.15,2013-06-06 20:55:00,
2013-06-06 17:05:00,77.6,72.7,29.82,SSW,208,6.0,7.0,85,0.00,,,0.00,Wunderground v.1.15,2013-06-06 21:05:00,
2013-06-06 17:15:00,77.8,73.3,29.82,SSE,166,5.0,6.0,86,0.00,,,0.00,Wunderground v.1.15,2013-06-06 21:15:00,
2013-06-06 17:25:00,77.8,72.9,29.82,South,187,5.0,7.0,85,0.00,,,0.00,Wunderground v.1.15,2013-06-06 21:25:00,
2013-06-06 17:34:00,77.7,72.5,29.81,SSW,200,6.0,8.0,84,0.00,,,0.00,Wunderground v.1.15,2013-06-06 21:34:00,
2013-06-06 17:40:00,77.6,72.4,29.81,SSW,201,6.0,7.0,84,0.00,,,0.00,Wunderground v.1.15,2013-06-06 21:40:00,
2013-06-06 17:50:00,77.7,72.8,29.81,SSW,197,4.0,4.0,85,0.00,,,0.00,Wunderground v.1.15,2013-06-06 21:50:00,
2013-06-06 18:00:00,77.5,72.6,29.81,SSW,199,4.0,4.0,85,0.00,,,0.00,Wunderground v.1.15,2013-06-06 22:00:00,
2013-06-06 18:10:00,77.5,73.0,29.81,South,173,2.0,2.0,86,0.00,,,0.00,Wunderground v.1.15,2013-06-06 22:10:00,
2013-06-06 18:20:00,77.4,73.2,29.81,SSE,167,3.0,3.0,87,0.00,,,0.00,Wunderground v.1.15,2013-06-06 22:20:00,
2013-06-06 18:29:00,77.4,73.2,29.81,SSE,153,3.0,5.0,87,0.00,,,0.00,Wunderground v.1.15,2013-06-06 22:29:00,
2013-06-06 18:35:00,77.3,73.1,29.81,SSE,167,4.0,5.0,87,0.00,,,0.00,Wunderground v.1.15,2013-06-06 22:35:00,
2013-06-06 18:45:00,77.2,73.0,29.81,SSE,153,4.0,5.0,87,0.00,,,0.00,Wunderground v.1.15,2013-06-06 22:45:00,
2013-06-06 18:55:00,77.1,73.3,29.81,SSE,157,4.0,6.0,88,0.00,,,0.00,Wunderground v.1.15,2013-06-06 22:55:00,
2013-06-06 19:05:00,77.0,73.2,29.81,SSE,158,4.0,6.0,88,0.00,,,0.00,Wunderground v.1.15,2013-06-06 23:05:00,
2013-06-06 19:15:00,76.9,73.4,29.81,SSE,153,4.0,4.0,89,0.00,,,0.00,Wunderground v.1.15,2013-06-06 23:15:00,
2013-06-06 19:25:00,76.6,73.1,29.81,SSE,168,5.0,6.0,89,0.00,,,0.00,Wunderground v.1.15,2013-06-06 23:25:00,
2013-06-06 19:35:00,76.5,73.0,29.81,SSE,150,3.0,4.0,89,0.00,,,0.00,Wunderground v.1.15,2013-06-06 23:35:00,
2013-06-06 19:45:00,76.4,73.2,29.82,SSE,155,3.0,5.0,90,0.00,,,0.00,Wunderground v.1.15,2013-06-06 23:45:00,
2013-06-06 19:55:00,76.3,73.1,29.81,SSE,154,4.0,5.0,90,0.00,,,0.00,Wunderground v.1.15,2013-06-06 23:55:00,
2013-06-06 20:05:00,76.1,73.3,29.81,South,170,4.0,4.0,91,0.00,,,0.00,Wunderground v.1.15,2013-06-07 00:05:00,
2013-06-06 20:15:00,76.0,73.2,29.81,SSE,155,3.0,5.0,91,0.00,,,0.00,Wunderground v.1.15,2013-06-07 00:15:00,
2013-06-06 20:20:00,76.0,73.2,29.81,SE,129,3.0,3.0,91,0.00,,,0.00,Wunderground v.1.15,2013-06-07 00:20:00,
2013-06-06 20:29:00,75.8,73.0,29.81,SE,128,3.0,3.0,91,0.00,,,0.00,Wunderground v.1.15,2013-06-07 00:29:00,
2013-06-06 20:35:00,75.9,73.1,29.81,ESE,105,3.0,3.0,91,0.00,,,0.00,Wunderground v.1.15,2013-06-07 00:35:00,
2013-06-06 20:40:00,75.8,73.0,29.81,ESE,112,2.0,3.0,91,0.00,,,0.00,Wunderground v.1.15,2013-06-07 00:40:00,
2013-06-06 20:49:00,75.8,73.3,29.80,SE,132,2.0,2.0,92,0.00,,,0.00,Wunderground v.1.15,2013-06-07 00:49:00,
2013-06-06 20:55:00,75.8,73.3,29.80,SE,140,2.0,3.0,92,0.00,,,0.00,Wunderground v.1.15,2013-06-07 00:55:00,
2013-06-06 21:00:00,75.7,73.2,29.80,SE,135,2.0,2.0,92,0.00,,,0.00,Wunderground v.1.15,2013-06-07 01:00:00,
2013-06-06 21:10:00,75.7,73.2,29.80,ESE,108,2.0,2.0,92,0.00,,,0.00,Wunderground v.1.15,2013-06-07 01:10:00,
2013-06-06 21:20:00,75.7,72.9,29.80,SE,136,2.0,2.0,91,0.00,,,0.00,Wunderground v.1.15,2013-06-07 01:20:00,
2013-06-06 21:30:00,75.5,73.0,29.80,SE,137,1.0,2.0,92,0.00,,,0.00,Wunderground v.1.15,2013-06-07 01:30:00,
2013-06-06 21:40:00,75.3,72.8,29.80,ESE,111,2.0,2.0,92,0.00,,,0.00,Wunderground v.1.15,2013-06-07 01:40:00,
2013-06-06 21:50:00,75.2,72.7,29.80,ESE,119,1.0,3.0,92,0.00,,,0.00,Wunderground v.1.15,2013-06-07 01:50:00,
2013-06-06 22:00:00,75.0,72.8,29.80,East,98,3.0,3.0,93,0.00,,,0.00,Wunderground v.1.15,2013-06-07 02:00:00,
2013-06-06 22:10:00,74.6,72.4,29.80,ESE,117,4.0,5.0,93,0.00,,,0.00,Wunderground v.1.15,2013-06-07 02:10:00,
2013-06-06 22:20:00,74.3,72.1,29.79,ESE,105,4.0,5.0,93,0.00,,,0.00,Wunderground v.1.15,2013-06-07 02:20:00,
2013-06-06 22:29:00,73.8,71.3,29.79,ESE,118,5.0,5.0,92,0.00,,,0.00,Wunderground v.1.15,2013-06-07 02:29:00,
2013-06-06 22:35:00,73.7,71.2,29.79,East,95,6.0,8.0,92,0.00,,,0.00,Wunderground v.1.15,2013-06-07 02:35:00,
2013-06-06 22:45:00,73.1,70.6,29.78,ESE,119,7.0,7.0,92,0.00,,,0.00,Wunderground v.1.15,2013-06-07 02:45:00,
2013-06-06 22:55:00,72.9,70.8,29.77,East,92,6.0,7.0,93,0.00,,,0.00,Wunderground v.1.15,2013-06-07 02:55:00,
2013-06-06 23:05:00,72.6,70.5,29.77,East,96,5.0,8.0,93,0.00,,,0.00,Wunderground v.1.15,2013-06-07 03:05:00,
2013-06-06 23:15:00,72.1,70.0,29.77,East,89,6.0,6.0,93,0.00,,,0.00,Wunderground v.1.15,2013-06-07 03:15:00,
2013-06-06 23:25:00,71.8,70.0,29.77,East,90,2.0,5.0,94,0.00,,,0.00,Wunderground v.1.15,2013-06-07 03:25:00,
2013-06-06 23:35:00,71.7,70.2,29.76,ENE,57,1.0,3.0,95,0.00,,,0.00,Wunderground v.1.15,2013-06-07 03:35:00,
2013-06-06 23:45:00,71.7,70.2,29.75,East,97,4.0,10.0,95,0.00,,,0.00,Wunderground v.1.15,2013-06-07 03:45:00,
2013-06-06 23:55:00,71.7,70.2,29.75,East,96,6.0,10.0,95,0.00,,,0.00,Wunderground v.1.15,2013-06-07 03:55:00,